This is the latest recevied weather packets stored in our database for station/object W1REE. If no packets are shown the sender has not sent any weather packets the latest 10 day(s).
| Time | Temp. | Humidity | Pressure | Rain* | Wind** | Luminosity | Snow |
|---|---|---|---|---|---|---|---|
| 1777906852 | 16.67° C | 29% | 1013 hPa | 0 mm | - | 363 W/m² | - |
| 1777906549 | 16.11° C | 28% | 1013.1 hPa | 0 mm | - | 277 W/m² | - |
| 1777906244 | 15.56° C | 30% | 1013.1 hPa | 0 mm | - | 241 W/m² | - |
| 1777905941 | 15.56° C | 38% | 1013.4 hPa | 0 mm | - | 197 W/m² | - |
| 1777905638 | 15° C | 31% | 1013.1 hPa | 0 mm | - | 178 W/m² | - |
| 1777905335 | 15° C | 33% | 1013.1 hPa | 0 mm | - | 178 W/m² | - |
| 1777905033 | 14.44° C | 39% | 1013.1 hPa | 0 mm | - | 177 W/m² | - |
| 1777904730 | 13.89° C | 40% | 1013.1 hPa | 0 mm | - | 172 W/m² | - |
| 1777904427 | 13.89° C | 38% | 1013.1 hPa | 0 mm | - | 166 W/m² | - |
| 1777904123 | 13.33° C | 38% | 1013.3 hPa | 0 mm | - | 148 W/m² | - |
| 1777903820 | 13.33° C | 35% | 1013 hPa | 0 mm | - | 116 W/m² | - |
| 1777903517 | 13.33° C | 35% | 1013.1 hPa | 0 mm | - | 92 W/m² | - |
| 1777903213 | 13.89° C | 34% | 1013 hPa | 0 mm | - | 122 W/m² | - |
| 1777902909 | 13.89° C | 34% | 1013 hPa | 0 mm | - | 126 W/m² | - |
| 1777902606 | 13.89° C | 34% | 1013 hPa | 0 mm | - | 113 W/m² | - |
| 1777902303 | 13.89° C | 37% | 1013.4 hPa | 0 mm | - | 167 W/m² | - |
| 1777902001 | 13.89° C | 32% | 1013.1 hPa | 0 mm | - | 177 W/m² | - |
| 1777901699 | 13.33° C | 32% | 1013 hPa | 0 mm | - | 175 W/m² | - |
| 1777901396 | 12.22° C | 34% | 1013 hPa | 0 mm | - | 201 W/m² | - |
| 1777901093 | 11.11° C | 37% | 1013.1 hPa | 0 mm | - | 161 W/m² | - |
| 1777900791 | 10.56° C | 41% | 1013.4 hPa | 0 mm | - | 140 W/m² | - |
| 1777900488 | 10° C | 43% | 1013.3 hPa | 0 mm | - | 90 W/m² | - |
| 1777900185 | 10.56° C | 38% | 1013.1 hPa | 0 mm | - | 64 W/m² | - |
| 1777899881 | 10° C | 38% | 1013.1 hPa | 0 mm | - | 52 W/m² | - |
| 1777899578 | 10° C | 38% | 1012.9 hPa | 0 mm | - | 45 W/m² | - |
* Rain latest hour (hover to see other rain measurements)
** Current wind speed in m/s (hover to see current wind gust speed)